Time,TemperatureF,DewpointF,PressureIn,WindDirection,WindDirectionDegrees,WindSpeedMPH,WindSpeedGustMPH,Humidity,HourlyPrecipIn,Conditions,Clouds,dailyrainin,SolarRadiationWatts/m^2,SoftwareType,DateUTC
2013-07-27 00:00:00,70.9,53.4,29.91,WSW,248,5.4,5.8,54,0.00,OVC,,0.00,0.0,WeatherDisplay:10.37,2013-07-27 04:00:00,
2013-07-27 00:01:00,70.9,53.4,29.91,East,90,8.5,10.4,54,0.00,OVC,,0.00,0.0,WeatherDisplay:10.37,2013-07-27 04:01:00,
2013-07-27 00:02:00,70.7,53.7,29.91,NW,315,7.4,10.4,55,0.00,OVC,,0.00,0.0,WeatherDisplay:10.37,2013-07-27 04:02:00,
2013-07-27 00:07:00,70.0,54.0,29.91,NNE,22,7.6,10.4,57,0.00,OVC,,0.00,0.0,WeatherDisplay:10.37,2013-07-27 04:07:00,
2013-07-27 00:12:00,69.1,54.1,29.91,NW,315,4.3,5.8,59,0.04,RA,OVC,0.04,0.0,WeatherDisplay:10.37,2013-07-27 04:12:00,
2013-07-27 00:17:00,68.7,54.3,29.91,North,0,4.0,4.6,60,0.04,RA,OVC,0.04,0.0,WeatherDisplay:10.37,2013-07-27 04:17:00,
2013-07-27 00:22:00,68.4,54.8,29.91,NNW,338,3.6,4.6,62,0.04,OVC,,0.04,0.0,WeatherDisplay:10.37,2013-07-27 04:22:00,
2013-07-27 00:27:00,68.2,55.5,29.91,NNW,338,4.3,4.6,64,0.04,OVC,,0.04,0.0,WeatherDisplay:10.37,2013-07-27 04:27:00,
2013-07-27 00:32:00,67.8,55.6,29.91,NW,315,4.3,4.6,65,0.04,OVC,,0.04,0.0,WeatherDisplay:10.37,2013-07-27 04:32:00,
2013-07-27 00:37:00,67.8,56.0,29.91,NW,315,2.9,4.6,66,0.04,OVC,,0.04,0.0,WeatherDisplay:10.37,2013-07-27 04:37:00,
2013-07-27 00:42:00,67.6,55.9,29.91,NW,315,2.9,3.5,66,0.04,OVC,,0.04,0.0,WeatherDisplay:10.37,2013-07-27 04:42:00,
2013-07-27 00:47:00,67.5,56.1,29.94,NNW,338,3.3,4.6,67,0.04,OVC,,0.04,0.0,WeatherDisplay:10.37,2013-07-27 04:47:00,
2013-07-27 00:52:00,67.5,56.5,29.94,NNW,338,4.3,4.6,68,0.04,OVC,,0.04,0.0,WeatherDisplay:10.37,2013-07-27 04:52:00,
2013-07-27 00:57:00,67.3,56.4,29.94,NNW,338,1.4,3.5,68,0.04,OVC,,0.04,0.0,WeatherDisplay:10.37,2013-07-27 04:57:00,
2013-07-27 01:02:00,67.3,56.8,29.94,WNW,292,0.0,0.0,69,0.04,-RA,OVC,0.04,0.0,WeatherDisplay:10.37,2013-07-27 05:02:00,
2013-07-27 01:07:00,67.3,57.2,29.94,WNW,292,0.0,0.0,70,0.04,-RA,OVC,0.04,0.0,WeatherDisplay:10.37,2013-07-27 05:07:00,
2013-07-27 01:12:00,67.3,57.2,29.94,West,270,0.0,0.0,70,0.00,-RA,OVC,0.04,0.0,WeatherDisplay:10.37,2013-07-27 05:12:00,
2013-07-27 01:17:00,67.5,57.7,29.97,WSW,248,0.0,0.0,71,0.00,-RA,OVC,0.04,0.0,WeatherDisplay:10.37,2013-07-27 05:17:00,
2013-07-27 01:22:00,67.5,57.7,29.97,SSE,158,1.6,2.4,71,0.08,-RA,OVC,0.12,0.0,WeatherDisplay:10.37,2013-07-27 05:22:00,
2013-07-27 01:27:00,67.3,57.9,29.97,SSE,158,3.1,4.6,72,0.08,-RA,OVC,0.12,0.0,WeatherDisplay:10.37,2013-07-27 05:27:00,
2013-07-27 01:32:00,67.3,57.9,29.91,ESE,112,0.0,1.2,72,0.08,-RA,OVC,0.12,0.0,WeatherDisplay:10.37,2013-07-27 05:32:00,
2013-07-27 01:37:00,67.5,58.1,29.91,SE,135,0.0,0.0,72,0.08,-RA,OVC,0.12,0.0,WeatherDisplay:10.37,2013-07-27 05:37:00,
2013-07-27 01:42:00,67.5,58.1,29.91,SSW,202,0.0,0.0,72,0.08,-RA,OVC,0.12,0.0,WeatherDisplay:10.37,2013-07-27 05:42:00,
2013-07-27 01:47:00,67.5,58.5,29.91,SW,225,0.0,0.0,73,0.08,-RA,OVC,0.12,0.0,WeatherDisplay:10.37,2013-07-27 05:47:00,
2013-07-27 01:52:00,67.5,58.5,29.91,WSW,248,0.0,3.8,73,0.08,-RA,OVC,0.12,0.0,WeatherDisplay:10.37,2013-07-27 05:52:00,
2013-07-27 01:57:00,67.5,58.5,29.91,SW,225,0.0,2.0,73,0.08,-RA,OVC,0.12,0.0,WeatherDisplay:10.37,2013-07-27 05:57:00,
2013-07-27 02:02:00,67.3,58.3,29.94,SW,225,2.9,5.8,73,0.08,-RA,OVC,0.12,0.0,WeatherDisplay:10.37,2013-07-27 06:02:00,
2013-07-27 02:07:00,67.3,58.3,29.94,SSW,202,2.4,6.9,73,0.08,-RA,OVC,0.12,0.0,WeatherDisplay:10.37,2013-07-27 06:07:00,
2013-07-27 02:12:00,67.1,58.2,29.94,South,180,6.7,9.2,73,0.08,-RA,OVC,0.12,0.0,WeatherDisplay:10.37,2013-07-27 06:12:00,
2013-07-27 02:17:00,66.9,58.0,29.91,SW,225,2.9,6.9,73,0.08,-RA,OVC,0.12,0.0,WeatherDisplay:10.37,2013-07-27 06:17:00,
2013-07-27 02:22:00,66.9,58.0,29.91,WSW,248,2.6,2.6,73,0.00,-RA,OVC,0.12,0.0,WeatherDisplay:10.37,2013-07-27 06:22:00,
2013-07-27 02:27:00,66.9,58.4,29.91,SSE,158,0.9,6.2,74,0.00,-RA,OVC,0.12,0.0,WeatherDisplay:10.37,2013-07-27 06:27:00,
2013-07-27 02:32:00,66.7,58.2,29.91,WSW,248,7.8,10.4,74,0.00,-RA,OVC,0.12,0.0,WeatherDisplay:10.37,2013-07-27 06:32:00,
2013-07-27 02:37:00,66.7,57.8,29.91,SSW,202,4.5,6.9,73,0.00,-RA,OVC,0.12,0.0,WeatherDisplay:10.37,2013-07-27 06:37:00,
2013-07-27 02:42:00,66.6,57.6,29.91,SSW,202,4.0,8.7,73,0.00,-RA,OVC,0.12,0.0,WeatherDisplay:10.37,2013-07-27 06:42:00,
2013-07-27 02:47:00,66.4,57.5,29.91,SSW,202,4.9,6.9,73,0.00,-RA,OVC,0.12,0.0,WeatherDisplay:10.37,2013-07-27 06:47:00,
2013-07-27 02:52:00,66.4,57.8,29.91,SW,225,4.5,6.9,74,0.00,-RA,OVC,0.12,0.0,WeatherDisplay:10.37,2013-07-27 06:52:00,
2013-07-27 02:57:00,66.4,57.8,29.91,SSW,202,0.9,7.8,74,0.00,-RA,OVC,0.12,0.0,WeatherDisplay:10.37,2013-07-27 06:57:00,
2013-07-27 03:02:00,66.2,57.7,29.88,SSW,202,2.4,3.6,74,0.00,-RA,OVC,0.12,0.0,WeatherDisplay:10.37,2013-07-27 07:02:00,
2013-07-27 03:07:00,66.2,58.0,29.88,West,270,4.0,4.6,75,0.00,-RA,OVC,0.12,0.0,WeatherDisplay:10.37,2013-07-27 07:07:00,
2013-07-27 03:12:00,66.2,58.0,29.88,South,180,3.6,4.9,75,0.00,-RA,OVC,0.12,0.0,WeatherDisplay:10.37,2013-07-27 07:12:00,
2013-07-27 03:17:00,66.2,58.0,29.91,SSW,202,2.0,6.9,75,0.00,-RA,OVC,0.12,0.0,WeatherDisplay:10.37,2013-07-27 07:17:00,
2013-07-27 03:22:00,66.2,58.0,29.91,SSW,202,2.6,4.6,75,0.00,-RA,OVC,0.12,0.0,WeatherDisplay:10.37,2013-07-27 07:22:00,
2013-07-27 03:27:00,66.2,58.4,29.91,WSW,248,1.4,3.5,76,0.00,-RA,OVC,0.12,0.0,WeatherDisplay:10.37,2013-07-27 07:27:00,
2013-07-27 03:32:00,66.2,58.4,29.88,WSW,248,2.9,6.0,76,0.00,-RA,OVC,0.12,0.0,WeatherDisplay:10.37,2013-07-27 07:32:00,
2013-07-27 03:37:00,66.2,58.4,29.88,SSW,202,2.9,4.6,76,0.00,-RA,OVC,0.12,0.0,WeatherDisplay:10.37,2013-07-27 07:37:00,
2013-07-27 03:42:00,66.2,58.4,29.88,SSW,202,1.2,3.5,76,0.00,-RA,OVC,0.12,0.0,WeatherDisplay:10.37,2013-07-27 07:42:00,
2013-07-27 03:47:00,66.2,58.8,29.88,South,180,3.1,5.8,77,0.00,-RA,OVC,0.12,0.0,WeatherDisplay:10.37,2013-07-27 07:47:00,
2013-07-27 03:52:00,66.2,58.8,29.88,SSE,158,0.9,2.9,77,0.00,-RA,OVC,0.12,0.0,WeatherDisplay:10.37,2013-07-27 07:52:00,
2013-07-27 03:57:00,66.2,58.8,29.88,SSE,158,5.6,10.0,77,0.00,-RA,OVC,0.12,0.0,WeatherDisplay:10.37,2013-07-27 07:57:00,
2013-07-27 04:02:00,66.2,58.8,29.88,SSW,202,4.3,6.4,77,0.00,OVC,,0.12,0.0,WeatherDisplay:10.37,2013-07-27 08:02:00,
2013-07-27 04:07:00,66.2,58.8,29.88,South,180,5.4,8.1,77,0.00,OVC,,0.12,0.0,WeatherDisplay:10.37,2013-07-27 08:07:00,
2013-07-27 04:12:00,66.0,59.0,29.88,SSE,158,5.4,6.9,78,0.00,OVC,,0.12,0.0,WeatherDisplay:10.37,2013-07-27 08:12:00,
2013-07-27 04:17:00,66.0,59.0,29.88,SSE,158,7.6,9.2,78,0.00,OVC,,0.12,0.0,WeatherDisplay:10.37,2013-07-27 08:17:00,
2013-07-27 04:22:00,66.0,59.0,29.88,SSW,202,3.6,4.6,78,0.00,OVC,,0.12,0.0,WeatherDisplay:10.37,2013-07-27 08:22:00,
2013-07-27 04:27:00,66.0,59.0,29.88,SSW,202,2.9,5.8,78,0.00,OVC,,0.12,0.0,WeatherDisplay:10.37,2013-07-27 08:27:00,
2013-07-27 04:32:00,66.0,59.3,29.88,SW,225,4.5,6.0,79,0.00,OVC,,0.12,0.0,WeatherDisplay:10.37,2013-07-27 08:32:00,
2013-07-27 04:37:00,66.0,59.3,29.88,SSE,158,5.6,8.1,79,0.00,OVC,,0.12,0.0,WeatherDisplay:10.37,2013-07-27 08:37:00,
2013-07-27 04:42:00,66.0,59.3,29.88,South,180,4.3,6.9,79,0.00,OVC,,0.12,0.0,WeatherDisplay:10.37,2013-07-27 08:42:00,
2013-07-27 04:47:00,66.2,59.5,29.88,West,270,5.4,6.0,79,0.00,OVC,,0.12,0.0,WeatherDisplay:10.37,2013-07-27 08:47:00,
2013-07-27 04:52:00,66.2,59.5,29.88,South,180,5.6,8.1,79,0.00,OVC,,0.12,0.0,WeatherDisplay:10.37,2013-07-27 08:52:00,
2013-07-27 04:57:00,66.2,59.5,29.88,SSE,158,4.7,6.9,79,0.00,OVC,,0.12,0.0,WeatherDisplay:10.37,2013-07-27 08:57:00,
2013-07-27 05:02:00,66.2,59.5,29.88,SSE,158,2.4,8.1,79,0.00,OVC,,0.12,0.0,WeatherDisplay:10.37,2013-07-27 09:02:00,
2013-07-27 05:07:00,66.2,59.5,29.88,South,180,2.6,4.6,79,0.00,OVC,,0.12,0.0,WeatherDisplay:10.37,2013-07-27 09:07:00,
2013-07-27 05:12:00,66.2,59.5,29.88,SSE,158,1.6,4.6,79,0.00,OVC,,0.12,0.0,WeatherDisplay:10.37,2013-07-27 09:12:00,
2013-07-27 05:17:00,66.2,59.5,29.85,SSE,158,3.3,8.1,79,0.00,OVC,,0.12,0.0,WeatherDisplay:10.37,2013-07-27 09:17:00,
2013-07-27 05:22:00,66.0,59.7,29.85,SSE,158,4.3,6.9,80,0.00,OVC,,0.12,0.0,WeatherDisplay:10.37,2013-07-27 09:22:00,
2013-07-27 05:27:00,66.0,59.7,29.85,South,180,6.0,6.9,80,0.00,OVC,,0.12,0.0,WeatherDisplay:10.37,2013-07-27 09:27:00,
2013-07-27 05:32:00,66.0,59.7,29.88,SSE,158,4.7,5.8,80,0.00,OVC,,0.12,0.0,WeatherDisplay:10.37,2013-07-27 09:32:00,
2013-07-27 05:37:00,66.0,59.7,29.88,South,180,1.6,5.6,80,0.00,OVC,,0.12,0.0,WeatherDisplay:10.37,2013-07-27 09:37:00,
2013-07-27 05:42:00,66.0,59.7,29.88,SSE,158,2.2,3.8,80,0.00,OVC,,0.12,0.0,WeatherDisplay:10.37,2013-07-27 09:42:00,
2013-07-27 05:47:00,65.8,59.5,29.88,South,180,4.5,5.8,80,0.00,OVC,,0.12,0.0,WeatherDisplay:10.37,2013-07-27 09:47:00,
2013-07-27 05:52:00,65.8,59.5,29.88,SSW,202,3.3,5.8,80,0.00,OVC,,0.12,0.0,WeatherDisplay:10.37,2013-07-27 09:52:00,
2013-07-27 05:57:00,66.0,60.0,29.88,SSE,158,2.0,6.2,81,0.00,OVC,,0.12,0.0,WeatherDisplay:10.37,2013-07-27 09:57:00,
2013-07-27 06:02:00,66.0,60.0,29.88,SSW,202,1.6,3.5,81,0.00,OVC,,0.12,0.0,WeatherDisplay:10.37,2013-07-27 10:02:00,
2013-07-27 06:07:00,66.0,60.0,29.88,SSW,202,3.1,5.4,81,0.00,OVC,,0.12,0.0,WeatherDisplay:10.37,2013-07-27 10:07:00,
2013-07-27 06:12:00,66.0,60.0,29.88,SSE,158,2.9,2.9,81,0.00,OVC,,0.12,0.0,WeatherDisplay:10.37,2013-07-27 10:12:00,
2013-07-27 06:17:00,66.0,60.0,29.85,SSW,202,1.2,5.8,81,0.00,OVC,,0.12,0.0,WeatherDisplay:10.37,2013-07-27 10:17:00,
2013-07-27 06:22:00,66.0,60.0,29.85,South,180,1.4,3.6,81,0.00,OVC,,0.12,0.0,WeatherDisplay:10.37,2013-07-27 10:22:00,
2013-07-27 06:27:00,66.0,60.0,29.85,SSE,158,3.8,6.9,81,0.00,OVC,,0.12,0.0,WeatherDisplay:10.37,2013-07-27 10:27:00,
2013-07-27 06:32:00,65.8,59.8,29.85,SSE,158,2.2,3.5,81,0.00,OVC,,0.12,0.0,WeatherDisplay:10.37,2013-07-27 10:32:00,
2013-07-27 06:34:00,65.8,59.8,29.85,SSE,158,0.0,1.2,81,0.00,OVC,,0.12,0.0,WeatherDisplay:10.37,2013-07-27 10:34:00,
2013-07-27 06:39:00,65.8,59.8,29.85,South,180,3.6,5.8,81,0.00,OVC,,0.12,0.0,WeatherDisplay:10.37,2013-07-27 10:39:00,
2013-07-27 06:44:00,65.8,59.8,29.88,South,180,4.0,5.8,81,0.00,OVC,,0.12,0.0,WeatherDisplay:10.37,2013-07-27 10:44:00,
2013-07-27 06:49:00,65.8,59.8,29.88,South,180,5.9,6.9,81,0.00,OVC,,0.12,0.0,WeatherDisplay:10.37,2013-07-27 10:49:00,
2013-07-27 06:54:00,65.8,59.8,29.88,SSE,158,6.2,6.9,81,0.00,OVC,,0.12,0.0,WeatherDisplay:10.37,2013-07-27 10:54:00,
2013-07-27 06:59:00,65.8,59.8,29.88,SSE,158,4.5,6.9,81,0.00,OVC,,0.12,0.0,WeatherDisplay:10.37,2013-07-27 10:59:00,
2013-07-27 07:04:00,65.8,59.8,29.88,SSE,158,3.6,7.6,81,0.00,OVC,,0.12,0.0,WeatherDisplay:10.37,2013-07-27 11:04:00,
2013-07-27 07:09:00,65.8,59.8,29.88,SSE,158,4.3,6.9,81,0.00,OVC,,0.12,0.0,WeatherDisplay:10.37,2013-07-27 11:09:00,
2013-07-27 07:14:00,65.8,59.8,29.88,SSE,158,2.9,6.2,81,0.00,OVC,,0.12,0.0,WeatherDisplay:10.37,2013-07-27 11:14:00,
2013-07-27 07:19:00,66.0,60.0,29.88,SSE,158,4.0,6.9,81,0.00,OVC,,0.12,0.0,WeatherDisplay:10.37,2013-07-27 11:19:00,
2013-07-27 07:24:00,66.0,60.0,29.88,SW,225,1.2,3.5,81,0.00,OVC,,0.12,0.0,WeatherDisplay:10.37,2013-07-27 11:24:00,
2013-07-27 07:29:00,66.0,60.4,29.88,SW,225,0.0,0.0,82,0.00,OVC,,0.12,0.0,WeatherDisplay:10.37,2013-07-27 11:29:00,
2013-07-27 07:34:00,66.0,60.0,29.88,SSW,202,3.8,5.8,81,0.00,OVC,,0.12,0.0,WeatherDisplay:10.37,2013-07-27 11:34:00,
2013-07-27 07:39:00,66.2,60.2,29.88,SW,225,0.9,3.5,81,0.00,OVC,,0.12,0.0,WeatherDisplay:10.37,2013-07-27 11:39:00,
2013-07-27 07:44:00,66.2,60.2,29.88,South,180,1.4,3.5,81,0.00,OVC,,0.12,0.0,WeatherDisplay:10.37,2013-07-27 11:44:00,
2013-07-27 07:49:00,66.4,60.4,29.88,SSW,202,0.9,2.4,81,0.00,OVC,,0.12,0.0,WeatherDisplay:10.37,2013-07-27 11:49:00,
2013-07-27 07:54:00,66.4,60.4,29.88,SSW,202,2.9,5.8,81,0.00,OVC,,0.12,0.0,WeatherDisplay:10.37,2013-07-27 11:54:00,
2013-07-27 07:59:00,66.6,60.5,29.88,SSE,158,0.0,5.8,81,0.00,OVC,,0.12,0.0,WeatherDisplay:10.37,2013-07-27 11:59:00,
2013-07-27 08:04:00,66.6,60.5,29.88,SSE,158,0.0,1.2,81,0.00,BKN,OVC,0.12,0.0,WeatherDisplay:10.37,2013-07-27 12:04:00,
2013-07-27 08:09:00,66.6,60.5,29.88,SSE,158,5.9,8.1,81,0.00,BKN,OVC,0.12,0.0,WeatherDisplay:10.37,2013-07-27 12:09:00,
2013-07-27 08:14:00,66.7,60.7,29.88,SSE,158,0.0,8.7,81,0.00,BKN,OVC,0.12,0.0,WeatherDisplay:10.37,2013-07-27 12:14:00,
2013-07-27 08:19:00,66.7,60.7,29.88,SW,225,0.0,2.3,81,0.00,BKN,OVC,0.12,100.0,WeatherDisplay:10.37,2013-07-27 12:19:00,
2013-07-27 08:24:00,66.7,60.7,29.88,SSW,202,1.6,2.3,81,0.00,BKN,OVC,0.12,0.0,WeatherDisplay:10.37,2013-07-27 12:24:00,
2013-07-27 08:29:00,66.7,60.4,29.88,SSW,202,3.8,4.6,80,0.00,BKN,OVC,0.12,0.0,WeatherDisplay:10.37,2013-07-27 12:29:00,
2013-07-27 08:34:00,66.7,60.7,29.88,SSW,202,2.0,4.3,81,0.00,BKN,OVC,0.12,0.0,WeatherDisplay:10.37,2013-07-27 12:34:00,
2013-07-27 08:39:00,66.7,60.7,29.88,SSE,158,3.3,6.9,81,0.00,BKN,OVC,0.12,0.0,WeatherDisplay:10.37,2013-07-27 12:39:00,
2013-07-27 08:44:00,66.7,60.7,29.85,SSE,158,3.1,4.6,81,0.00,BKN,OVC,0.12,0.0,WeatherDisplay:10.37,2013-07-27 12:44:00,
2013-07-27 08:49:00,66.7,60.7,29.85,SSW,202,4.9,5.8,81,0.00,BKN,OVC,0.12,0.0,WeatherDisplay:10.37,2013-07-27 12:49:00,
2013-07-27 08:54:00,66.9,60.9,29.85,South,180,4.9,6.9,81,0.00,BKN,OVC,0.12,0.0,WeatherDisplay:10.37,2013-07-27 12:54:00,
2013-07-27 08:59:00,66.9,60.9,29.88,SSW,202,0.0,0.0,81,0.00,BKN,OVC,0.12,0.0,WeatherDisplay:10.37,2013-07-27 12:59:00,
2013-07-27 09:04:00,66.9,60.9,29.88,SSE,158,0.0,1.2,81,0.00,OVC,,0.12,0.0,WeatherDisplay:10.37,2013-07-27 13:04:00,
2013-07-27 09:09:00,66.9,60.9,29.88,SSE,158,4.5,5.8,81,0.00,OVC,,0.12,0.0,WeatherDisplay:10.37,2013-07-27 13:09:00,
2013-07-27 09:14:00,66.9,60.9,29.88,South,189,3.0,8.0,81,0.00,OVC,OVC,0.12,0.0,WeatherDisplay:10.37,2013-07-27 13:14:00,
2013-07-27 09:19:00,66.9,60.9,29.88,SSW,202,6.7,8.1,81,0.00,OVC,,0.12,0.0,WeatherDisplay:10.37,2013-07-27 13:19:00,
2013-07-27 09:24:00,66.9,60.5,29.88,SSW,212,3.0,8.0,80,0.00,OVC,OVC,0.12,0.0,WeatherDisplay:10.37,2013-07-27 13:24:00,
2013-07-27 09:29:00,66.9,60.5,29.88,SSW,206,5.0,9.0,80,0.00,OVC,OVC,0.12,0.0,WeatherDisplay:10.37,2013-07-27 13:29:00,
2013-07-27 09:34:00,66.9,60.9,29.88,SSW,202,2.6,6.9,81,0.00,OVC,,0.12,0.0,WeatherDisplay:10.37,2013-07-27 13:34:00,
2013-07-27 09:39:00,66.9,60.5,29.88,SSW,198,3.0,9.0,80,0.00,OVC,OVC,0.12,0.0,WeatherDisplay:10.37,2013-07-27 13:39:00,
2013-07-27 09:44:00,66.9,60.9,29.88,SSW,201,1.0,8.0,81,0.00,OVC,OVC,0.12,0.0,WeatherDisplay:10.37,2013-07-27 13:44:00,
2013-07-27 09:49:00,66.9,60.9,29.88,SSW,213,2.0,6.0,81,0.00,OVC,OVC,0.12,0.0,WeatherDisplay:10.37,2013-07-27 13:49:00,
2013-07-27 09:54:00,67.1,61.1,29.88,SW,221,1.0,5.0,81,0.00,OVC,OVC,0.12,300.0,WeatherDisplay:10.37,2013-07-27 13:54:00,
2013-07-27 09:59:00,67.5,61.4,29.88,SSW,202,2.9,3.6,81,0.00,OVC,,0.12,0.0,WeatherDisplay:10.37,2013-07-27 13:59:00,
2013-07-27 10:04:00,67.5,61.4,29.88,SSW,208,0.0,4.0,81,0.00,OVC,OVC,0.12,0.0,WeatherDisplay:10.37,2013-07-27 14:04:00,
2013-07-27 10:09:00,67.6,61.6,29.88,SSW,203,2.0,6.0,81,0.00,OVC,OVC,0.12,0.0,WeatherDisplay:10.37,2013-07-27 14:09:00,
2013-07-27 10:14:00,67.6,61.6,29.88,SSW,197,2.0,5.0,81,0.00,OVC,OVC,0.12,200.0,WeatherDisplay:10.37,2013-07-27 14:14:00,
2013-07-27 10:19:00,67.8,61.8,29.85,South,183,5.0,9.0,81,0.00,OVC,OVC,0.12,0.0,WeatherDisplay:10.37,2013-07-27 14:19:00,
2013-07-27 10:24:00,68.0,61.9,29.85,SSW,202,6.4,6.9,81,0.00,OVC,,0.12,100.0,WeatherDisplay:10.37,2013-07-27 14:24:00,
2013-07-27 10:29:00,68.0,61.6,29.88,SSE,158,4.3,9.2,80,0.00,OVC,,0.12,100.0,WeatherDisplay:10.37,2013-07-27 14:29:00,
2013-07-27 10:34:00,68.0,61.6,29.88,South,180,6.4,8.1,80,0.00,OVC,,0.12,100.0,WeatherDisplay:10.37,2013-07-27 14:34:00,
2013-07-27 10:39:00,68.0,61.6,29.88,SSE,158,1.4,8.5,80,0.00,OVC,,0.12,200.0,WeatherDisplay:10.37,2013-07-27 14:39:00,
2013-07-27 10:44:00,68.2,61.8,29.85,SSW,202,2.6,5.8,80,0.00,OVC,,0.12,100.0,WeatherDisplay:10.37,2013-07-27 14:44:00,
2013-07-27 10:49:00,68.2,61.8,29.85,SSW,202,6.2,9.2,80,0.00,OVC,,0.12,200.0,WeatherDisplay:10.37,2013-07-27 14:49:00,
2013-07-27 10:54:00,68.4,61.9,29.85,SSW,202,0.0,2.3,80,0.00,OVC,,0.12,200.0,WeatherDisplay:10.37,2013-07-27 14:54:00,
2013-07-27 10:59:00,68.5,62.1,29.85,SSW,202,4.9,8.1,80,0.00,OVC,,0.12,200.0,WeatherDisplay:10.37,2013-07-27 14:59:00,
2013-07-27 11:04:00,68.7,62.3,29.85,SSW,202,4.7,8.1,80,0.00,OVC,,0.12,200.0,WeatherDisplay:10.37,2013-07-27 15:04:00,
2013-07-27 11:09:00,68.9,62.5,29.85,SSE,158,3.3,6.9,80,0.00,OVC,,0.12,200.0,WeatherDisplay:10.37,2013-07-27 15:09:00,
2013-07-27 11:14:00,68.9,62.1,29.85,SSE,158,5.9,10.0,79,0.00,OVC,,0.12,200.0,WeatherDisplay:10.37,2013-07-27 15:14:00,
2013-07-27 11:19:00,68.9,62.1,29.85,SSW,202,0.0,1.2,79,0.00,OVC,,0.12,100.0,WeatherDisplay:10.37,2013-07-27 15:19:00,
2013-07-27 11:24:00,69.1,62.3,29.85,SSE,158,0.0,5.8,79,0.00,OVC,,0.12,200.0,WeatherDisplay:10.37,2013-07-27 15:24:00,
2013-07-27 11:29:00,69.3,62.5,29.85,SSW,202,0.0,0.0,79,0.00,OVC,,0.12,0.0,WeatherDisplay:10.37,2013-07-27 15:29:00,
2013-07-27 11:34:00,69.1,61.9,29.85,SSW,202,2.2,5.8,78,0.00,OVC,,0.12,0.0,WeatherDisplay:10.37,2013-07-27 15:34:00,
2013-07-27 11:39:00,69.1,61.9,29.85,South,180,3.1,5.9,78,0.00,OVC,,0.12,0.0,WeatherDisplay:10.37,2013-07-27 15:39:00,
2013-07-27 11:44:00,68.9,61.8,29.85,SSW,202,0.0,7.4,78,0.00,OVC,,0.12,0.0,WeatherDisplay:10.37,2013-07-27 15:44:00,
2013-07-27 11:49:00,68.9,61.8,29.85,SSW,202,0.9,2.3,78,0.00,OVC,,0.12,100.0,WeatherDisplay:10.37,2013-07-27 15:49:00,
2013-07-27 11:54:00,68.9,62.1,29.85,WSW,248,0.0,0.0,79,0.00,OVC,,0.12,0.0,WeatherDisplay:10.37,2013-07-27 15:54:00,
2013-07-27 11:59:00,68.9,62.1,29.85,SSW,202,3.3,4.6,79,0.00,OVC,,0.12,100.0,WeatherDisplay:10.37,2013-07-27 15:59:00,
2013-07-27 12:04:00,69.1,62.3,29.85,South,180,4.7,5.8,79,0.00,OVC,,0.12,500.0,WeatherDisplay:10.37,2013-07-27 16:04:00,
2013-07-27 12:09:00,69.4,63.0,29.85,South,180,2.4,4.6,80,0.00,OVC,,0.12,700.0,WeatherDisplay:10.37,2013-07-27 16:09:00,
2013-07-27 12:14:00,70.0,63.9,29.85,SSE,158,1.2,4.6,81,0.00,OVC,,0.12,1000.0,WeatherDisplay:10.37,2013-07-27 16:14:00,
2013-07-27 12:19:00,70.7,64.6,29.85,South,180,6.2,10.4,81,0.00,OVC,,0.12,800.0,WeatherDisplay:10.37,2013-07-27 16:19:00,
2013-07-27 12:24:00,71.2,65.1,29.85,SSE,158,6.7,8.1,81,0.00,OVC,,0.12,800.0,WeatherDisplay:10.37,2013-07-27 16:24:00,
2013-07-27 12:29:00,71.6,65.1,29.85,SSW,202,3.1,5.8,80,0.00,OVC,,0.12,600.0,WeatherDisplay:10.37,2013-07-27 16:29:00,
2013-07-27 12:34:00,72.0,65.1,29.85,SE,135,3.8,5.8,79,0.00,OVC,,0.12,700.0,WeatherDisplay:10.37,2013-07-27 16:34:00,
2013-07-27 12:39:00,72.1,64.9,29.85,SSE,158,6.9,8.1,78,0.00,OVC,,0.12,600.0,WeatherDisplay:10.37,2013-07-27 16:39:00,
2013-07-27 12:44:00,72.3,64.7,29.83,SSE,158,7.1,8.1,77,0.00,OVC,,0.12,400.0,WeatherDisplay:10.37,2013-07-27 16:44:00,
2013-07-27 12:49:00,72.3,64.3,29.83,SE,135,7.8,13.8,76,0.00,OVC,,0.12,200.0,WeatherDisplay:10.37,2013-07-27 16:49:00,
2013-07-27 12:54:00,72.5,64.1,29.83,SSE,158,7.8,9.2,75,0.00,OVC,,0.12,1100.0,WeatherDisplay:10.37,2013-07-27 16:54:00,
2013-07-27 12:59:00,72.9,64.5,29.83,SSE,158,5.6,8.7,75,0.00,OVC,,0.12,800.0,WeatherDisplay:10.37,2013-07-27 16:59:00,
2013-07-27 13:04:00,73.0,64.3,29.83,SSE,158,6.0,8.1,74,0.00,BKN,OVC,0.12,400.0,WeatherDisplay:10.37,2013-07-27 17:04:00,
2013-07-27 13:09:00,73.0,63.9,29.83,SSE,158,4.0,5.8,73,0.00,BKN,OVC,0.12,300.0,WeatherDisplay:10.37,2013-07-27 17:09:00,
2013-07-27 13:14:00,73.0,63.5,29.83,SSE,158,6.9,10.2,72,0.00,BKN,OVC,0.12,300.0,WeatherDisplay:10.37,2013-07-27 17:14:00,
2013-07-27 13:19:00,73.0,63.1,29.83,SSE,158,6.7,6.9,71,0.00,BKN,OVC,0.12,500.0,WeatherDisplay:10.37,2013-07-27 17:19:00,
2013-07-27 13:24:00,73.4,63.4,29.83,ESE,112,4.5,9.2,71,0.00,BKN,OVC,0.12,600.0,WeatherDisplay:10.37,2013-07-27 17:24:00,
2013-07-27 13:29:00,73.8,63.8,29.80,SSE,158,7.6,10.4,71,0.00,BKN,OVC,0.12,1000.0,WeatherDisplay:10.37,2013-07-27 17:29:00,
2013-07-27 13:34:00,74.3,64.3,29.80,South,180,7.1,10.9,71,0.00,BKN,OVC,0.12,1500.0,WeatherDisplay:10.37,2013-07-27 17:34:00,
2013-07-27 13:39:00,74.8,64.4,29.80,SSE,158,9.8,11.5,70,0.00,BKN,OVC,0.12,700.0,WeatherDisplay:10.37,2013-07-27 17:39:00,
2013-07-27 13:44:00,75.0,64.2,29.83,SSE,158,9.8,12.7,69,0.00,BKN,OVC,0.12,1100.0,WeatherDisplay:10.37,2013-07-27 17:44:00,
2013-07-27 13:49:00,75.6,63.8,29.83,SSW,202,9.4,9.7,67,0.00,BKN,OVC,0.12,600.0,WeatherDisplay:10.37,2013-07-27 17:49:00,
2013-07-27 13:54:00,75.7,63.6,29.83,SSE,158,7.4,9.2,66,0.00,BKN,OVC,0.12,400.0,WeatherDisplay:10.37,2013-07-27 17:54:00,
2013-07-27 13:59:00,75.6,63.0,29.80,SE,135,7.4,10.4,65,0.00,BKN,OVC,0.12,400.0,WeatherDisplay:10.37,2013-07-27 17:59:00,
2013-07-27 14:04:00,75.4,62.8,29.80,SE,135,7.6,11.5,65,0.00,BKN,OVC,0.12,200.0,WeatherDisplay:10.37,2013-07-27 18:04:00,
2013-07-27 14:09:00,75.0,62.5,29.80,SE,135,4.9,7.4,65,0.00,BKN,OVC,0.12,500.0,WeatherDisplay:10.37,2013-07-27 18:09:00,
2013-07-27 14:14:00,74.8,61.8,29.80,SSE,158,10.2,12.7,64,0.00,BKN,OVC,0.12,200.0,WeatherDisplay:10.37,2013-07-27 18:14:00,
2013-07-27 14:19:00,74.3,61.3,29.80,SSE,158,12.3,17.3,64,0.00,BKN,OVC,0.12,200.0,WeatherDisplay:10.37,2013-07-27 18:19:00,
2013-07-27 14:24:00,73.8,60.8,29.80,SSE,158,8.1,10.4,64,0.00,BKN,OVC,0.12,300.0,WeatherDisplay:10.37,2013-07-27 18:24:00,
2013-07-27 14:29:00,73.4,60.9,29.80,SSE,158,6.7,8.1,65,0.00,BKN,OVC,0.12,400.0,WeatherDisplay:10.37,2013-07-27 18:29:00,
2013-07-27 14:34:00,73.4,61.3,29.80,SSE,158,8.7,9.8,66,0.00,BKN,OVC,0.12,300.0,WeatherDisplay:10.37,2013-07-27 18:34:00,
2013-07-27 14:39:00,73.2,61.2,29.80,SSE,158,11.2,14.3,66,0.00,BKN,OVC,0.12,200.0,WeatherDisplay:10.37,2013-07-27 18:39:00,
2013-07-27 14:44:00,73.0,60.6,29.77,SSE,158,10.9,15.0,65,0.00,BKN,OVC,0.12,200.0,WeatherDisplay:10.37,2013-07-27 18:44:00,
2013-07-27 14:49:00,72.7,60.2,29.77,South,180,7.1,13.2,65,0.00,BKN,OVC,0.12,100.0,WeatherDisplay:10.37,2013-07-27 18:49:00,
2013-07-27 14:54:00,72.3,59.9,29.77,SSW,202,10.7,17.3,65,0.00,BKN,OVC,0.12,100.0,WeatherDisplay:10.37,2013-07-27 18:54:00,
2013-07-27 14:59:00,72.0,59.6,29.83,South,180,7.6,11.5,65,0.00,BKN,OVC,0.12,200.0,WeatherDisplay:10.37,2013-07-27 18:59:00,
2013-07-27 15:04:00,72.0,60.0,29.83,South,180,10.5,15.0,66,0.00,BKN,OVC,0.12,800.0,WeatherDisplay:10.37,2013-07-27 19:04:00,
2013-07-27 15:09:00,72.3,60.7,29.83,SSE,158,7.6,9.2,67,0.00,BKN,OVC,0.12,700.0,WeatherDisplay:10.37,2013-07-27 19:09:00,
2013-07-27 15:14:00,72.7,61.1,29.80,SSE,158,9.7,11.5,67,0.00,BKN,OVC,0.12,400.0,WeatherDisplay:10.37,2013-07-27 19:14:00,
2013-07-27 15:19:00,72.7,61.1,29.80,SSW,202,3.8,7.6,67,0.00,BKN,OVC,0.12,400.0,WeatherDisplay:10.37,2013-07-27 19:19:00,
2013-07-27 15:24:00,72.7,61.1,29.80,SSW,202,7.6,10.4,67,0.00,BKN,OVC,0.12,400.0,WeatherDisplay:10.37,2013-07-27 19:24:00,
2013-07-27 15:29:00,72.9,61.3,29.80,South,180,1.6,9.8,67,0.00,BKN,OVC,0.12,400.0,WeatherDisplay:10.37,2013-07-27 19:29:00,
2013-07-27 15:34:00,73.2,61.6,29.80,WSW,248,6.9,6.9,67,0.00,BKN,OVC,0.12,1100.0,WeatherDisplay:10.37,2013-07-27 19:34:00,
2013-07-27 15:39:00,73.6,61.5,29.80,SSW,202,9.7,12.7,66,0.00,BKN,OVC,0.12,400.0,WeatherDisplay:10.37,2013-07-27 19:39:00,
2013-07-27 15:44:00,73.6,61.5,29.80,SSE,158,4.3,8.1,66,0.00,BKN,OVC,0.12,500.0,WeatherDisplay:10.37,2013-07-27 19:44:00,
2013-07-27 15:49:00,73.9,61.9,29.80,SSE,158,6.2,8.1,66,0.00,BKN,OVC,0.12,700.0,WeatherDisplay:10.37,2013-07-27 19:49:00,
2013-07-27 15:54:00,74.3,62.2,29.80,SSE,158,4.3,10.2,66,0.04,RA,OVC,0.16,1300.0,WeatherDisplay:10.37,2013-07-27 19:54:00,
2013-07-27 15:59:00,74.8,62.7,29.77,SSE,158,6.0,8.1,66,0.04,RA,OVC,0.16,1200.0,WeatherDisplay:10.37,2013-07-27 19:59:00,
2013-07-27 16:04:00,75.2,62.2,29.77,SSE,158,6.0,8.1,64,0.04,OVC,,0.16,500.0,WeatherDisplay:10.37,2013-07-27 20:04:00,
2013-07-27 16:09:00,75.0,61.1,29.77,SSW,202,7.1,8.1,62,0.04,OVC,,0.16,300.0,WeatherDisplay:10.37,2013-07-27 20:09:00,
2013-07-27 16:14:00,74.8,59.5,29.77,SSE,158,4.5,8.1,59,0.04,OVC,,0.16,200.0,WeatherDisplay:10.37,2013-07-27 20:14:00,
2013-07-27 16:19:00,74.7,58.9,29.77,SSE,158,4.0,5.8,58,0.04,OVC,,0.16,700.0,WeatherDisplay:10.37,2013-07-27 20:19:00,
2013-07-27 16:24:00,75.0,59.2,29.77,South,180,4.5,5.8,58,0.04,OVC,,0.16,300.0,WeatherDisplay:10.37,2013-07-27 20:24:00,
2013-07-27 16:29:00,74.8,58.6,29.77,South,180,6.0,8.1,57,0.04,OVC,,0.16,200.0,WeatherDisplay:10.37,2013-07-27 20:29:00,
2013-07-27 16:34:00,74.7,57.9,29.77,SSE,158,4.5,8.1,56,0.04,OVC,,0.16,900.0,WeatherDisplay:10.37,2013-07-27 20:34:00,
2013-07-27 16:39:00,74.8,58.6,29.77,South,180,5.4,9.2,57,0.04,OVC,,0.16,1000.0,WeatherDisplay:10.37,2013-07-27 20:39:00,
2013-07-27 16:44:00,75.0,58.3,29.77,SSE,158,6.2,12.7,56,0.04,OVC,,0.16,900.0,WeatherDisplay:10.37,2013-07-27 20:44:00,
2013-07-27 16:49:00,75.2,58.4,29.77,SSW,202,7.8,8.7,56,0.04,OVC,,0.16,800.0,WeatherDisplay:10.37,2013-07-27 20:49:00,
2013-07-27 16:54:00,75.0,58.3,29.77,SW,225,2.6,4.9,56,0.00,OVC,,0.16,800.0,WeatherDisplay:10.37,2013-07-27 20:54:00,
2013-07-27 16:59:00,75.0,58.3,29.74,SSE,158,7.4,10.4,56,0.00,OVC,,0.16,700.0,WeatherDisplay:10.37,2013-07-27 20:59:00,
2013-07-27 17:04:00,74.8,58.1,29.74,SSE,158,3.3,5.8,56,0.00,BKN,OVC,0.16,300.0,WeatherDisplay:10.37,2013-07-27 21:04:00,
2013-07-27 17:09:00,74.7,57.9,29.74,SSE,158,6.2,6.2,56,0.00,BKN,OVC,0.16,200.0,WeatherDisplay:10.37,2013-07-27 21:09:00,
2013-07-27 17:14:00,74.3,57.6,29.77,SW,225,2.2,4.6,56,0.00,BKN,OVC,0.16,200.0,WeatherDisplay:10.37,2013-07-27 21:14:00,
2013-07-27 17:19:00,73.9,57.3,29.77,SW,225,6.0,9.2,56,0.00,BKN,OVC,0.16,0.0,WeatherDisplay:10.37,2013-07-27 21:19:00,
2013-07-27 17:24:00,71.4,53.9,29.77,WNW,292,12.3,20.7,54,0.00,BKN,OVC,0.16,0.0,WeatherDisplay:10.37,2013-07-27 21:24:00,
2013-07-27 17:29:00,69.3,52.4,29.77,NNW,338,7.6,13.8,55,0.34,RA,OVC,0.50,0.0,WeatherDisplay:10.37,2013-07-27 21:29:00,
2013-07-27 17:34:00,68.0,52.2,29.77,WNW,292,3.6,4.6,57,0.34,RA,OVC,0.50,0.0,WeatherDisplay:10.37,2013-07-27 21:34:00,
2013-07-27 17:39:00,67.8,53.0,29.77,WNW,292,2.4,4.6,59,0.42,RA,OVC,0.58,100.0,WeatherDisplay:10.37,2013-07-27 21:39:00,
2013-07-27 17:44:00,67.5,53.5,29.77,NW,315,2.6,3.5,61,0.42,RA,OVC,0.58,200.0,WeatherDisplay:10.37,2013-07-27 21:44:00,
2013-07-27 17:49:00,67.5,54.4,29.77,WNW,292,5.4,6.9,63,0.42,BKN,OVC,0.58,400.0,WeatherDisplay:10.37,2013-07-27 21:49:00,
2013-07-27 17:54:00,67.6,55.5,29.77,West,270,3.3,3.6,65,0.42,BKN,OVC,0.58,300.0,WeatherDisplay:10.37,2013-07-27 21:54:00,
2013-07-27 17:59:00,67.8,56.0,29.80,WNW,292,3.8,4.6,66,0.42,BKN,OVC,0.58,300.0,WeatherDisplay:10.37,2013-07-27 21:59:00,
2013-07-27 18:04:00,68.0,56.6,29.80,West,270,3.3,5.8,67,0.42,OVC,,0.58,300.0,WeatherDisplay:10.37,2013-07-27 22:04:00,
2013-07-27 18:09:00,68.0,56.6,29.80,West,270,4.0,7.4,67,0.42,OVC,,0.58,300.0,WeatherDisplay:10.37,2013-07-27 22:09:00,
2013-07-27 18:14:00,68.2,57.6,29.80,WNW,292,2.4,8.1,69,0.42,OVC,,0.58,300.0,WeatherDisplay:10.37,2013-07-27 22:14:00,
2013-07-27 18:19:00,68.4,58.2,29.80,NW,315,6.4,9.2,70,0.42,OVC,,0.58,300.0,WeatherDisplay:10.37,2013-07-27 22:19:00,
2013-07-27 18:24:00,68.5,58.4,29.80,WNW,292,6.9,11.2,70,0.42,OVC,,0.58,200.0,WeatherDisplay:10.37,2013-07-27 22:24:00,
2013-07-27 18:29:00,68.5,58.4,29.80,WNW,292,7.1,9.2,70,0.08,OVC,,0.58,200.0,WeatherDisplay:10.37,2013-07-27 22:29:00,
2013-07-27 18:34:00,68.5,58.4,29.80,WNW,292,9.4,13.8,70,0.08,OVC,,0.58,200.0,WeatherDisplay:10.37,2013-07-27 22:34:00,
2013-07-27 18:39:00,68.5,58.0,29.80,North,0,10.0,11.5,69,0.00,OVC,,0.58,200.0,WeatherDisplay:10.37,2013-07-27 22:39:00,
2013-07-27 18:44:00,68.7,57.7,29.80,NNW,338,8.7,10.4,68,0.00,OVC,,0.58,200.0,WeatherDisplay:10.37,2013-07-27 22:44:00,
2013-07-27 18:49:00,68.5,57.1,29.80,NNW,338,3.6,12.7,67,0.00,OVC,,0.58,200.0,WeatherDisplay:10.37,2013-07-27 22:49:00,
2013-07-27 18:54:00,68.5,57.1,29.80,NW,315,5.6,5.8,67,0.00,OVC,,0.58,100.0,WeatherDisplay:10.37,2013-07-27 22:54:00,
2013-07-27 18:59:00,68.2,56.4,29.83,NNW,338,11.2,17.3,66,0.00,OVC,,0.58,0.0,WeatherDisplay:10.37,2013-07-27 22:59:00,
2013-07-27 19:04:00,67.8,55.6,29.83,West,270,7.8,10.4,65,0.00,BKN,OVC,0.58,0.0,WeatherDisplay:10.37,2013-07-27 23:04:00,
2013-07-27 19:09:00,67.5,54.9,29.83,NW,315,7.6,12.3,64,0.00,BKN,OVC,0.58,0.0,WeatherDisplay:10.37,2013-07-27 23:09:00,
2013-07-27 19:15:00,67.1,54.5,29.80,WNW,292,6.4,11.5,64,0.00,BKN,OVC,0.58,0.0,WeatherDisplay:10.37,2013-07-27 23:15:00,
2013-07-27 19:20:00,66.9,54.3,29.80,NW,315,4.5,9.2,64,0.00,BKN,OVC,0.58,100.0,WeatherDisplay:10.37,2013-07-27 23:20:00,
2013-07-27 19:25:00,66.9,54.3,29.80,West,270,5.9,8.7,64,0.00,BKN,OVC,0.58,100.0,WeatherDisplay:10.37,2013-07-27 23:25:00,
2013-07-27 19:30:00,66.7,54.2,29.83,West,270,13.7,17.6,64,0.00,BKN,OVC,0.58,100.0,WeatherDisplay:10.37,2013-07-27 23:30:00,
2013-07-27 19:35:00,66.6,54.0,29.83,WSW,248,6.2,12.7,64,0.00,BKN,OVC,0.58,100.0,WeatherDisplay:10.37,2013-07-27 23:35:00,
2013-07-27 19:40:00,66.2,53.7,29.83,WNW,292,6.4,10.4,64,0.00,BKN,OVC,0.58,100.0,WeatherDisplay:10.37,2013-07-27 23:40:00,
2013-07-27 19:45:00,65.8,53.7,29.85,WNW,292,3.8,9.2,65,0.00,BKN,OVC,0.58,0.0,WeatherDisplay:10.37,2013-07-27 23:45:00,
2013-07-27 19:50:00,65.7,53.6,29.85,West,270,6.2,12.7,65,0.00,BKN,OVC,0.58,0.0,WeatherDisplay:10.37,2013-07-27 23:50:00,
2013-07-27 19:55:00,65.5,53.8,29.85,WNW,292,7.1,15.0,66,0.00,BKN,OVC,0.58,0.0,WeatherDisplay:10.37,2013-07-27 23:55:00,
2013-07-27 20:00:00,65.5,53.8,29.85,West,270,6.2,12.7,66,0.00,BKN,OVC,0.58,0.0,WeatherDisplay:10.37,2013-07-28 00:00:00,
2013-07-27 20:05:00,65.1,53.5,29.85,NNW,338,7.8,11.5,66,0.00,BKN,OVC,0.58,0.0,WeatherDisplay:10.37,2013-07-28 00:05:00,
2013-07-27 20:10:00,64.8,53.1,29.85,WNW,292,6.9,10.4,66,0.00,BKN,OVC,0.58,0.0,WeatherDisplay:10.37,2013-07-28 00:10:00,
2013-07-27 20:15:00,64.6,53.0,29.85,WNW,292,4.0,11.5,66,0.00,BKN,OVC,0.58,0.0,WeatherDisplay:10.37,2013-07-28 00:15:00,
2013-07-27 20:20:00,64.4,52.8,29.85,NW,315,6.0,12.7,66,0.00,BKN,OVC,0.58,0.0,WeatherDisplay:10.37,2013-07-28 00:20:00,
2013-07-27 20:25:00,64.2,52.6,29.85,NW,315,6.7,9.4,66,0.00,BKN,OVC,0.58,0.0,WeatherDisplay:10.37,2013-07-28 00:25:00,
2013-07-27 20:30:00,64.2,53.0,29.85,West,270,7.6,8.1,67,0.00,BKN,OVC,0.58,0.0,WeatherDisplay:10.37,2013-07-28 00:30:00,
2013-07-27 20:35:00,64.0,52.9,29.85,WNW,292,5.4,7.6,67,0.00,BKN,OVC,0.58,0.0,WeatherDisplay:10.37,2013-07-28 00:35:00,
2013-07-27 20:40:00,63.9,52.3,29.85,WNW,292,3.3,6.9,66,0.00,BKN,OVC,0.58,0.0,WeatherDisplay:10.37,2013-07-28 00:40:00,
2013-07-27 20:45:00,63.9,52.3,29.85,WNW,292,3.3,6.9,66,0.00,BKN,OVC,0.58,0.0,WeatherDisplay:10.37,2013-07-28 00:45:00,
2013-07-27 20:50:00,63.7,52.1,29.85,WNW,292,5.6,9.2,66,0.00,BKN,OVC,0.58,0.0,WeatherDisplay:10.37,2013-07-28 00:50:00,
2013-07-27 20:55:00,63.5,52.3,29.85,WNW,292,4.0,4.6,67,0.00,BKN,OVC,0.58,0.0,WeatherDisplay:10.37,2013-07-28 00:55:00,
2013-07-27 21:00:00,63.5,51.9,29.85,NW,315,4.5,5.8,66,0.00,BKN,OVC,0.58,0.0,WeatherDisplay:10.37,2013-07-28 01:00:00,
2013-07-27 21:05:00,63.3,51.8,29.85,West,270,4.9,5.8,66,0.00,BKN,OVC,0.58,0.0,WeatherDisplay:10.37,2013-07-28 01:05:00,
2013-07-27 21:10:00,63.1,51.6,29.85,WNW,292,4.7,4.7,66,0.00,BKN,OVC,0.58,0.0,WeatherDisplay:10.37,2013-07-28 01:10:00,
2013-07-27 21:15:00,63.1,51.6,29.85,West,270,4.5,5.8,66,0.00,BKN,OVC,0.58,0.0,WeatherDisplay:10.37,2013-07-28 01:15:00,
2013-07-27 21:20:00,63.0,51.4,29.85,NW,315,4.7,10.0,66,0.00,BKN,OVC,0.58,0.0,WeatherDisplay:10.37,2013-07-28 01:20:00,
2013-07-27 21:25:00,62.6,50.7,29.85,WNW,292,6.7,8.1,65,0.00,BKN,OVC,0.58,0.0,WeatherDisplay:10.37,2013-07-28 01:25:00,
2013-07-27 21:30:00,62.4,50.5,29.85,WNW,292,5.4,8.1,65,0.00,BKN,OVC,0.58,0.0,WeatherDisplay:10.37,2013-07-28 01:30:00,
2013-07-27 21:35:00,62.2,50.3,29.85,WNW,292,2.9,5.8,65,0.00,BKN,OVC,0.58,0.0,WeatherDisplay:10.37,2013-07-28 01:35:00,
2013-07-27 21:40:00,62.2,50.3,29.85,West,270,2.9,5.8,65,0.00,BKN,OVC,0.58,0.0,WeatherDisplay:10.37,2013-07-28 01:40:00,
2013-07-27 21:45:00,62.2,50.3,29.88,WSW,248,1.2,2.3,65,0.00,BKN,OVC,0.58,0.0,WeatherDisplay:10.37,2013-07-28 01:45:00,
2013-07-27 21:50:00,62.2,50.7,29.88,WSW,248,2.2,2.9,66,0.00,BKN,OVC,0.58,0.0,WeatherDisplay:10.37,2013-07-28 01:50:00,
2013-07-27 21:55:00,62.1,50.6,29.88,WNW,292,2.0,3.8,66,0.00,BKN,OVC,0.58,0.0,WeatherDisplay:10.37,2013-07-28 01:55:00,
2013-07-27 22:00:00,62.1,50.2,29.88,WNW,292,4.9,5.8,65,0.00,BKN,OVC,0.58,0.0,WeatherDisplay:10.37,2013-07-28 02:00:00,
2013-07-27 22:05:00,61.9,50.0,29.88,WNW,292,2.0,6.9,65,0.00,BKN,OVC,0.58,0.0,WeatherDisplay:10.37,2013-07-28 02:05:00,
2013-07-27 22:10:00,61.7,49.8,29.88,WSW,248,2.6,5.8,65,0.00,BKN,OVC,0.58,0.0,WeatherDisplay:10.37,2013-07-28 02:10:00,
2013-07-27 22:15:00,61.7,49.8,29.88,West,270,2.6,5.8,65,0.00,BKN,OVC,0.58,0.0,WeatherDisplay:10.37,2013-07-28 02:15:00,
2013-07-27 22:20:00,61.5,49.2,29.88,West,270,3.8,5.8,64,0.00,BKN,OVC,0.58,0.0,WeatherDisplay:10.37,2013-07-28 02:20:00,
2013-07-27 22:25:00,61.3,49.1,29.88,WNW,292,2.9,7.8,64,0.00,BKN,OVC,0.58,0.0,WeatherDisplay:10.37,2013-07-28 02:25:00,
2013-07-27 22:30:00,61.0,48.3,29.88,WNW,292,3.1,6.9,63,0.00,BKN,OVC,0.58,0.0,WeatherDisplay:10.37,2013-07-28 02:30:00,
2013-07-27 22:35:00,61.0,48.7,29.88,West,270,4.3,5.8,64,0.00,BKN,OVC,0.58,0.0,WeatherDisplay:10.37,2013-07-28 02:35:00,
2013-07-27 22:40:00,60.8,48.5,29.88,West,270,2.9,4.6,64,0.00,BKN,OVC,0.58,0.0,WeatherDisplay:10.37,2013-07-28 02:40:00,
2013-07-27 22:45:00,60.8,48.5,29.88,WNW,292,2.9,6.4,64,0.00,BKN,OVC,0.58,0.0,WeatherDisplay:10.37,2013-07-28 02:45:00,
2013-07-27 22:50:00,60.6,48.4,29.88,WNW,292,1.4,4.6,64,0.00,BKN,OVC,0.58,0.0,WeatherDisplay:10.37,2013-07-28 02:50:00,
2013-07-27 22:55:00,60.4,48.2,29.88,West,270,2.9,6.7,64,0.00,BKN,OVC,0.58,0.0,WeatherDisplay:10.37,2013-07-28 02:55:00,
2013-07-27 23:00:00,60.4,48.2,29.91,WNW,292,1.6,5.8,64,0.00,BKN,OVC,0.58,0.0,WeatherDisplay:10.37,2013-07-28 03:00:00,
2013-07-27 23:05:00,60.3,47.6,29.91,West,270,3.6,3.8,63,0.00,FEW,OVC,0.58,0.0,WeatherDisplay:10.37,2013-07-28 03:05:00,
2013-07-27 23:10:00,60.3,47.6,29.91,West,270,2.6,3.5,63,0.00,FEW,OVC,0.58,0.0,WeatherDisplay:10.37,2013-07-28 03:10:00,
2013-07-27 23:15:00,60.1,47.4,29.88,WSW,248,2.0,3.5,63,0.00,FEW,OVC,0.58,0.0,WeatherDisplay:10.37,2013-07-28 03:15:00,
2013-07-27 23:20:00,59.9,47.3,29.88,WSW,248,2.9,5.8,63,0.00,FEW,OVC,0.58,0.0,WeatherDisplay:10.37,2013-07-28 03:20:00,
2013-07-27 23:25:00,59.7,46.7,29.88,WSW,248,2.6,3.5,62,0.00,FEW,OVC,0.58,0.0,WeatherDisplay:10.37,2013-07-28 03:25:00,
2013-07-27 23:30:00,59.7,47.1,29.88,West,270,2.4,4.6,63,0.00,FEW,OVC,0.58,0.0,WeatherDisplay:10.37,2013-07-28 03:30:00,
2013-07-27 23:35:00,59.5,46.9,29.88,West,270,3.1,4.6,63,0.00,FEW,OVC,0.58,0.0,WeatherDisplay:10.37,2013-07-28 03:35:00,
2013-07-27 23:40:00,59.4,46.8,29.88,WSW,248,3.1,3.5,63,0.00,FEW,OVC,0.58,0.0,WeatherDisplay:10.37,2013-07-28 03:40:00,
2013-07-27 23:45:00,59.4,47.2,29.88,SW,225,2.6,4.3,64,0.00,FEW,OVC,0.58,0.0,WeatherDisplay:10.37,2013-07-28 03:45:00,
2013-07-27 23:50:00,59.2,47.0,29.88,WSW,248,4.9,4.9,64,0.00,FEW,OVC,0.58,0.0,WeatherDisplay:10.37,2013-07-28 03:50:00,
2013-07-27 23:55:00,59.0,46.8,29.88,WNW,292,3.1,5.8,64,0.00,FEW,OVC,0.58,0.0,WeatherDisplay:10.37,2013-07-28 03:55:00,